Auriesville, NY

8:26 AM EDT on October 22, 2014 (GMT -0400)
Dykeman Farms | Change Station
CLOSE
Current Station
Personal Weather Station
Location: Fultonville, NY
Elevation: 505 ft
Nearby Weather Stations

Elev 505 ft 42.91 °N, 74.36 °W | Updated 1 minute ago

Overcast
Overcast
51.0 °F
Feels Like 51.0 °F
N
6.0
Wind Variable Wind from East
Gusts 8.0 mph

Today
High -- | Low -- °F
--% Chance of Precip.
Yesterday
High -- | Low -- °F
Precip. -- in
7:19 AM 6:03 PM
Waning Crescent, 2% visible
Pressure 30.07 in
Visibility 10.0 miles
Clouds Overcast 2800 ft
Dew Point 47 °F
Humidity 86%
Rainfall 0.00 in
Snow Depth Not available.
UV 0 out of 12
Pollen .10 out of 12
Ozone Good
PM2.5 Good
Flu Activity Sporadic
METAR KSCH 221154Z 04010G14KT 10SM OVC028 10/08 A3007

More Conditions Fewer Conditions

Pressure 30.07 in
Visibility 10.0 miles
Clouds Overcast 2800 ft
Dew Point 47 °F
Humidity 86%
Rainfall 0.00 in
Snow Depth Not available.
UV 0 out of 12
Pollen .10 out of 12
Ozone Good
PM2.5 Good
Flu Activity Sporadic
METAR KSCH 221154Z 04010G14KT 10SM OVC028 10/08 A3007

More Conditions Fewer Conditions

10-Day Weather Forecast

Almanac

Astronomy

Oct. 22, 2014 Rise Set
Actual Time 7:19 AM EDT 6:03 PM EDT
Civil Twilight 6:50 AM EDT 6:32 PM EDT
Nautical Twilight 6:17 AM EDT 7:05 PM EDT
Astronomical Twilight 5:44 AM EDT 7:38 PM EDT
Moon 5:56 AM EDT 5:30 PM EDT
Length of Visible Light 11h 42m
Length of Day
10h 44m
Tomorrow will be 2m 45s shorter.
Waning Crescent, 2% of the Moon is Illuminated
Today
Waning Crescent
Oct 23
New
Oct 30
First Quarter
Nov 6
Full
Nov 14
Last Quarter

Today's Extremes

State Highs State Lows

Community

WunderPhotos

Upload Photos

1,763,907 photos uploaded!

Nearby

Air Quality

  Air Quality AQ Index Pollutant
Yesterday Good
PM2.5
Yesterday Good
OZONE
Current Good
PM2.5
Current Good
OZONE
Wednesday Good
PM2.5

Snow Depth

Station Depth Elevation
No new snow has been reported.

Earthquake Activity

City Distance Mag. Time & Date
No recent earthquake activity has been reported nearby.
Minimum magnitude displayed is 2.5.

Coastal Water Temperatures

Place Temperature
No Stations Reporting

Nearby Weather Stations